createdAt,value
2018-12-19T00:00:23.487Z,5.23
2018-12-19T00:02:49.854Z,6.30
2018-12-19T00:05:16.138Z,6.17
2018-12-19T00:07:42.415Z,5.90
2018-12-19T00:10:08.716Z,5.23
2018-12-19T00:12:35.000Z,5.00
2018-12-19T00:15:03.122Z,5.70
2018-12-19T00:17:29.428Z,5.30
2018-12-19T00:19:55.734Z,5.03
2018-12-19T00:22:21.977Z,4.83
2018-12-19T00:24:48.243Z,4.57
2018-12-19T00:27:14.500Z,5.07
2018-12-19T00:29:40.750Z,4.00
2018-12-19T00:32:07.037Z,3.77
2018-12-19T00:34:33.328Z,4.33
2018-12-19T00:36:59.644Z,3.97
2018-12-19T00:39:25.953Z,4.00
2018-12-19T00:41:52.216Z,3.90
2018-12-19T00:44:18.470Z,3.40
2018-12-19T00:46:44.804Z,4.90
2018-12-19T00:49:11.083Z,6.33
2018-12-19T00:51:37.394Z,5.53
2018-12-19T00:54:03.711Z,5.27
2018-12-19T00:56:30.034Z,5.07
2018-12-19T00:58:56.308Z,4.77
2018-12-19T01:01:22.644Z,5.10
2018-12-19T01:03:49.000Z,4.17
2018-12-19T01:06:15.522Z,4.23
2018-12-19T01:08:41.955Z,4.33
2018-12-19T01:11:08.217Z,5.40
2018-12-19T01:13:34.746Z,4.20
2018-12-19T01:16:01.008Z,4.03
2018-12-19T01:18:27.267Z,5.57
2018-12-19T01:20:53.651Z,5.90
2018-12-19T01:23:19.916Z,5.73
2018-12-19T01:25:46.200Z,7.57
2018-12-19T01:28:12.488Z,7.00
2018-12-19T01:30:38.770Z,8.17
2018-12-19T01:33:05.111Z,9.03
2018-12-19T01:35:31.407Z,9.40
2018-12-19T01:37:57.672Z,7.17
2018-12-19T01:40:23.975Z,7.90
2018-12-19T01:42:50.269Z,6.60
2018-12-19T01:45:16.581Z,5.80
2018-12-19T01:47:42.993Z,6.20
2018-12-19T01:50:09.262Z,5.13
2018-12-19T01:52:35.534Z,4.87
2018-12-19T01:55:01.964Z,5.17
2018-12-19T01:57:28.238Z,4.80
2018-12-19T01:59:54.510Z,8.90
2018-12-19T02:02:20.811Z,5.73
2018-12-19T02:04:47.128Z,5.20
2018-12-19T02:07:13.477Z,5.10
2018-12-19T02:09:39.783Z,4.80
2018-12-19T02:12:06.096Z,5.70
2018-12-19T02:14:32.423Z,5.43
2018-12-19T02:16:58.717Z,6.00
2018-12-19T02:19:24.992Z,6.10
2018-12-19T02:21:51.257Z,7.13
2018-12-19T02:24:17.592Z,8.77
2018-12-19T02:26:43.894Z,6.33
2018-12-19T02:29:10.164Z,6.97
2018-12-19T02:31:36.479Z,6.50
2018-12-19T02:34:02.806Z,6.73
2018-12-19T02:36:29.139Z,6.40
2018-12-19T02:38:55.471Z,6.17
2018-12-19T02:41:21.825Z,6.13
2018-12-19T02:43:48.084Z,5.83
2018-12-19T02:46:14.355Z,5.27
2018-12-19T02:48:40.640Z,5.77
2018-12-19T02:51:06.914Z,5.40
2018-12-19T02:53:33.186Z,4.87
2018-12-19T02:55:59.466Z,5.47
2018-12-19T02:58:25.727Z,6.17
2018-12-19T03:00:51.956Z,4.90
2018-12-19T03:03:18.258Z,4.87
2018-12-19T03:05:44.513Z,4.80
2018-12-19T03:08:10.849Z,4.57
2018-12-19T03:10:37.202Z,4.83
2018-12-19T03:13:03.548Z,5.77
2018-12-19T03:15:29.846Z,6.80
2018-12-19T03:17:56.116Z,5.70
2018-12-19T03:20:22.351Z,6.27
2018-12-19T03:22:48.660Z,5.77
2018-12-19T03:25:14.988Z,5.97
2018-12-19T03:27:41.290Z,5.57
2018-12-19T03:30:07.632Z,5.63
2018-12-19T03:32:33.929Z,5.97
2018-12-19T03:35:00.261Z,8.63
2018-12-19T03:37:26.501Z,6.87
2018-12-19T03:39:52.752Z,5.93
2018-12-19T03:42:19.094Z,6.37
2018-12-19T03:44:45.381Z,6.00
2018-12-19T03:47:11.647Z,5.27
2018-12-19T03:49:38.256Z,5.53
2018-12-19T03:52:04.539Z,6.57
2018-12-19T03:54:30.977Z,5.00
2018-12-19T03:56:57.529Z,4.83
2018-12-19T03:59:23.926Z,5.23
2018-12-19T04:01:50.222Z,4.73
2018-12-19T04:04:16.489Z,5.63
2018-12-19T04:06:42.760Z,5.17
2018-12-19T04:09:09.049Z,5.13
2018-12-19T04:11:35.353Z,4.50
2018-12-19T04:14:01.620Z,4.43
2018-12-19T04:16:27.962Z,5.20
2018-12-19T04:18:54.262Z,6.03
2018-12-19T04:21:20.589Z,4.83
2018-12-19T04:23:46.871Z,4.80
2018-12-19T04:26:13.209Z,5.60
2018-12-19T04:28:39.541Z,8.70
2018-12-19T04:31:05.802Z,6.40
2018-12-19T04:33:32.099Z,5.03
2018-12-19T04:35:58.517Z,6.37
2018-12-19T04:38:25.099Z,10.37
2018-12-19T04:40:51.372Z,9.53
2018-12-19T04:43:17.677Z,6.97
2018-12-19T04:45:43.980Z,6.40
2018-12-19T04:48:10.268Z,5.47
2018-12-19T04:50:36.517Z,5.90
2018-12-19T04:53:02.873Z,5.67
2018-12-19T04:55:29.264Z,11.00
2018-12-19T04:57:55.526Z,9.27
2018-12-19T05:00:21.873Z,10.03
2018-12-19T05:02:48.153Z,9.70
2018-12-19T05:05:14.518Z,9.00
2018-12-19T05:07:40.990Z,8.00
2018-12-19T05:10:12.289Z,10.13
2018-12-19T05:12:35.698Z,6.73
2018-12-19T05:15:02.016Z,6.07
2018-12-19T05:17:28.348Z,6.63
2018-12-19T05:19:55.935Z,8.90
2018-12-19T05:22:22.241Z,6.40
2018-12-19T05:24:48.592Z,5.90
2018-12-19T05:27:14.978Z,6.50
2018-12-19T05:29:41.360Z,6.20
2018-12-19T05:32:07.685Z,5.90
2018-12-19T05:34:34.041Z,5.67
2018-12-19T05:37:00.375Z,5.73
2018-12-19T05:39:27.507Z,5.57
2018-12-19T05:41:53.799Z,7.30
2018-12-19T05:44:20.188Z,6.90
2018-12-19T05:46:46.454Z,6.73
2018-12-19T05:49:12.731Z,6.97
2018-12-19T05:51:39.038Z,6.50
2018-12-19T05:54:05.313Z,7.03
2018-12-19T05:56:31.614Z,6.00
2018-12-19T05:58:57.849Z,6.10
2018-12-19T06:01:24.114Z,6.80
2018-12-19T06:03:50.416Z,9.03
2018-12-19T06:06:16.672Z,7.23
2018-12-19T06:08:42.955Z,6.20
2018-12-19T06:11:09.236Z,6.20
2018-12-19T06:13:35.536Z,6.63
2018-12-19T06:16:01.784Z,6.23
2018-12-19T06:18:28.017Z,5.60
2018-12-19T06:20:54.319Z,5.77
2018-12-19T06:23:20.614Z,5.23
2018-12-19T06:25:46.920Z,4.73
2018-12-19T06:28:13.165Z,4.90
2018-12-19T06:30:39.420Z,8.73
2018-12-19T06:33:05.831Z,7.67
2018-12-19T06:35:32.204Z,7.50
2018-12-19T06:37:58.433Z,7.77
2018-12-19T06:40:24.699Z,7.53
2018-12-19T06:42:51.024Z,8.33
2018-12-19T06:45:17.308Z,8.70
2018-12-19T06:47:43.540Z,7.87
2018-12-19T06:50:09.841Z,6.70
2018-12-19T06:52:36.130Z,7.43
2018-12-19T06:55:02.672Z,6.00
2018-12-19T06:57:28.952Z,8.40
2018-12-19T06:59:55.283Z,6.90
2018-12-19T07:02:21.589Z,6.33
2018-12-19T07:04:47.870Z,6.97
2018-12-19T07:07:14.127Z,8.13
2018-12-19T07:09:40.421Z,8.13
2018-12-19T07:12:06.683Z,8.33
2018-12-19T07:14:33.106Z,7.30
2018-12-19T07:16:59.387Z,6.57
2018-12-19T07:19:25.622Z,7.43
2018-12-19T07:21:51.954Z,8.43
2018-12-19T07:24:18.259Z,9.40
2018-12-19T07:26:44.561Z,8.03
2018-12-19T07:29:10.822Z,7.87
2018-12-19T07:31:37.047Z,7.27
2018-12-19T07:34:03.304Z,8.43
2018-12-19T07:36:29.567Z,9.27
2018-12-19T07:38:55.834Z,9.10
2018-12-19T07:41:23.423Z,8.10
2018-12-19T07:43:49.735Z,12.50
2018-12-19T07:46:19.784Z,8.43
2018-12-19T07:48:44.351Z,7.77
2018-12-19T07:51:10.620Z,7.03
2018-12-19T07:53:37.965Z,6.53
2018-12-19T07:56:04.646Z,5.83
2018-12-19T07:58:30.950Z,5.23
2018-12-19T08:00:57.347Z,5.23
2018-12-19T08:03:23.689Z,7.23
2018-12-19T08:05:49.956Z,7.50
2018-12-19T08:08:16.231Z,7.67
2018-12-19T08:10:42.520Z,9.17
2018-12-19T08:13:08.835Z,8.03
2018-12-19T08:15:35.093Z,8.17
2018-12-19T08:18:01.370Z,9.00
2018-12-19T08:20:27.633Z,7.63
2018-12-19T08:22:53.881Z,7.90
2018-12-19T08:25:20.167Z,7.03
2018-12-19T08:27:46.440Z,7.23
2018-12-19T08:30:12.772Z,6.87
2018-12-19T08:32:39.041Z,6.40
2018-12-19T08:35:05.485Z,6.73
2018-12-19T08:37:31.751Z,5.93
2018-12-19T08:39:57.995Z,5.93
2018-12-19T08:42:24.365Z,6.73
2018-12-19T08:44:50.639Z,10.07
2018-12-19T08:47:16.926Z,6.83
2018-12-19T08:49:43.287Z,6.57
2018-12-19T08:52:09.533Z,5.70
2018-12-19T08:54:35.793Z,6.73
2018-12-19T08:57:02.070Z,6.03
2018-12-19T08:59:28.353Z,5.67
2018-12-19T09:01:54.604Z,6.37
2018-12-19T09:04:25.770Z,5.27
2018-12-19T09:06:49.255Z,5.17
2018-12-19T09:09:15.520Z,5.57
2018-12-19T09:11:41.832Z,5.20
2018-12-19T09:14:08.127Z,5.30
2018-12-19T09:16:34.415Z,4.83
2018-12-19T09:19:00.723Z,4.60
2018-12-19T09:21:26.965Z,4.70
2018-12-19T09:23:53.254Z,4.23
2018-12-19T09:26:19.511Z,4.67
2018-12-19T09:28:45.748Z,5.87
2018-12-19T09:31:12.220Z,5.30
2018-12-19T09:33:38.476Z,4.90
2018-12-19T09:36:05.922Z,4.57
2018-12-19T09:38:32.993Z,4.13
2018-12-19T09:40:59.297Z,3.93
2018-12-19T09:46:16.852Z,4.53
2018-12-19T09:48:43.129Z,5.00
2018-12-19T09:51:09.834Z,5.10
2018-12-19T09:53:36.113Z,5.50
2018-12-19T09:56:02.426Z,9.13
2018-12-19T09:58:28.684Z,6.27
2018-12-19T10:00:55.023Z,5.20
2018-12-19T10:03:21.339Z,5.10
2018-12-19T10:05:47.628Z,4.33
2018-12-19T10:08:13.918Z,3.83
2018-12-19T10:10:40.191Z,10.40
2018-12-19T10:13:06.616Z,8.00
2018-12-19T10:15:32.898Z,8.93
2018-12-19T10:17:59.226Z,8.70
2018-12-19T10:20:25.497Z,8.20
2018-12-19T10:22:53.777Z,8.57
2018-12-19T10:25:20.074Z,7.97
2018-12-19T10:27:46.292Z,7.63
2018-12-19T10:30:12.662Z,5.90
2018-12-19T10:32:40.084Z,5.40
2018-12-19T10:35:08.077Z,4.93
2018-12-19T10:37:34.338Z,5.10
2018-12-19T10:40:00.634Z,6.63
2018-12-19T10:42:26.926Z,5.80
2018-12-19T10:44:53.209Z,6.03
2018-12-19T10:47:19.444Z,5.27
2018-12-19T10:49:45.707Z,5.37
2018-12-19T10:52:12.041Z,5.50
2018-12-19T10:54:38.276Z,6.17
2018-12-19T10:57:04.564Z,5.43
2018-12-19T10:59:30.875Z,5.23
2018-12-19T11:01:57.220Z,4.40
2018-12-19T11:04:23.443Z,5.00
2018-12-19T11:06:49.708Z,5.73
2018-12-19T11:09:16.027Z,5.73
2018-12-19T11:11:42.302Z,6.83
2018-12-19T11:14:08.597Z,8.20
2018-12-19T11:16:34.893Z,8.63
2018-12-19T11:19:01.153Z,7.23
2018-12-19T11:21:27.444Z,5.80
2018-12-19T11:23:53.714Z,5.40
2018-12-19T11:26:19.956Z,5.00
2018-12-19T11:28:46.243Z,4.97
2018-12-19T11:31:12.546Z,5.20
2018-12-19T11:33:38.817Z,7.43
2018-12-19T11:36:05.088Z,6.93
2018-12-19T11:38:31.325Z,7.20
2018-12-19T11:40:57.591Z,6.00
2018-12-19T11:43:23.843Z,5.23
2018-12-19T11:45:50.126Z,5.50
2018-12-19T11:48:16.389Z,4.67
2018-12-19T11:50:42.798Z,4.30
2018-12-19T11:53:09.050Z,4.17
2018-12-19T11:55:35.300Z,4.10
2018-12-19T11:58:01.610Z,3.67
2018-12-19T12:00:27.907Z,3.87
2018-12-19T12:02:54.229Z,3.13
2018-12-19T12:05:20.477Z,3.37
2018-12-19T12:07:46.734Z,3.10
2018-12-19T12:10:13.064Z,3.20
2018-12-19T12:12:39.339Z,6.47
2018-12-19T12:15:06.167Z,5.63
2018-12-19T12:17:33.518Z,5.57
2018-12-19T12:19:59.788Z,5.50
2018-12-19T12:22:26.027Z,4.70
2018-12-19T12:24:52.412Z,5.10
2018-12-19T12:27:18.716Z,4.20
2018-12-19T12:29:44.980Z,4.70
2018-12-19T12:32:11.272Z,4.23
2018-12-19T12:34:37.574Z,3.70
2018-12-19T12:37:03.923Z,4.20
2018-12-19T12:39:30.187Z,4.23
2018-12-19T12:41:56.470Z,4.20
2018-12-19T12:44:22.767Z,3.83
2018-12-19T12:46:49.046Z,3.73
2018-12-19T12:49:15.333Z,3.77
2018-12-19T12:51:41.617Z,3.90
2018-12-19T12:54:07.848Z,3.77
2018-12-19T12:56:34.117Z,3.57
2018-12-19T12:59:00.397Z,3.17
2018-12-19T13:01:26.700Z,3.70
2018-12-19T13:03:52.981Z,3.50
2018-12-19T13:06:19.220Z,3.60
2018-12-19T13:08:45.545Z,3.50
2018-12-19T13:11:11.826Z,3.60
2018-12-19T13:13:38.110Z,3.87
2018-12-19T13:16:04.379Z,4.60
2018-12-19T13:18:30.600Z,12.40
2018-12-19T13:20:56.957Z,12.70
2018-12-19T13:23:23.263Z,13.83
2018-12-19T13:25:49.575Z,18.60
2018-12-19T13:28:15.837Z,20.27
2018-12-19T13:30:42.147Z,21.93
2018-12-19T13:33:08.456Z,20.40
2018-12-19T13:35:34.715Z,23.50
2018-12-19T13:38:00.977Z,20.30
2018-12-19T13:40:27.238Z,17.40
2018-12-19T13:42:53.533Z,14.93
2018-12-19T13:45:19.792Z,14.57
2018-12-19T13:47:46.055Z,12.07
2018-12-19T13:50:12.387Z,10.90
2018-12-19T13:52:38.597Z,9.47
2018-12-19T13:55:04.844Z,7.80
2018-12-19T13:57:31.114Z,7.53
2018-12-19T13:59:57.411Z,6.60
2018-12-19T14:02:23.668Z,6.77
2018-12-19T14:04:50.097Z,8.57
2018-12-19T14:07:16.359Z,6.70
2018-12-19T14:09:42.656Z,7.03
2018-12-19T14:12:12.332Z,6.13
2018-12-19T14:14:37.252Z,5.33
2018-12-19T14:17:03.594Z,5.47
2018-12-19T14:19:29.828Z,5.10
2018-12-19T14:21:56.182Z,6.63
2018-12-19T14:24:22.493Z,6.53
2018-12-19T14:26:48.780Z,6.23
2018-12-19T14:29:15.064Z,5.43
2018-12-19T14:31:41.372Z,4.73
2018-12-19T14:34:07.680Z,4.33
2018-12-19T14:36:33.989Z,5.23
2018-12-19T14:39:00.272Z,4.30
2018-12-19T14:41:26.581Z,4.10
2018-12-19T14:43:52.869Z,3.93
2018-12-19T14:46:19.094Z,3.67
2018-12-19T14:48:45.385Z,3.63
2018-12-19T14:51:11.802Z,3.20
2018-12-19T14:53:38.098Z,3.70
2018-12-19T14:56:04.402Z,3.20
2018-12-19T14:58:30.666Z,3.57
2018-12-19T15:00:56.973Z,3.37
2018-12-19T15:03:23.201Z,3.33
2018-12-19T15:05:49.512Z,3.50
2018-12-19T15:08:15.869Z,3.50
2018-12-19T15:10:42.279Z,3.70
2018-12-19T15:13:08.555Z,3.40
2018-12-19T15:15:34.861Z,5.70
2018-12-19T15:18:01.200Z,3.87
2018-12-19T15:20:27.469Z,4.60
2018-12-19T15:22:53.834Z,4.40
2018-12-19T15:25:20.154Z,4.40
2018-12-19T15:27:46.436Z,4.17
2018-12-19T15:30:12.718Z,3.87
2018-12-19T15:32:39.211Z,4.57
2018-12-19T15:35:05.724Z,3.90
2018-12-19T15:37:31.997Z,3.43
2018-12-19T15:39:58.315Z,4.40
2018-12-19T15:42:24.591Z,3.70
2018-12-19T15:44:50.840Z,4.10
2018-12-19T15:47:17.088Z,3.60
2018-12-19T15:49:43.357Z,3.10
2018-12-19T15:52:09.588Z,3.30
2018-12-19T15:54:35.836Z,3.70
2018-12-19T15:57:02.817Z,4.63
2018-12-19T15:59:29.207Z,4.00
2018-12-19T16:01:55.518Z,4.03
2018-12-19T16:04:21.785Z,4.50
2018-12-19T16:06:48.172Z,7.00
2018-12-19T16:09:14.459Z,7.87
2018-12-19T16:11:40.718Z,5.93
2018-12-19T16:14:06.994Z,5.87
2018-12-19T16:16:33.265Z,7.17
2018-12-19T16:18:59.581Z,5.80
2018-12-19T16:21:25.840Z,6.10
2018-12-19T16:23:52.183Z,6.20
2018-12-19T16:26:18.483Z,5.60
2018-12-19T16:28:44.792Z,5.50
2018-12-19T16:31:11.104Z,4.60
2018-12-19T16:33:37.406Z,4.17
2018-12-19T16:36:03.751Z,5.03
2018-12-19T16:38:30.057Z,3.77
2018-12-19T16:40:56.368Z,3.57
2018-12-19T16:43:22.770Z,3.57
2018-12-19T16:45:49.064Z,4.13
2018-12-19T16:48:15.296Z,5.93
2018-12-19T16:50:41.684Z,9.23
2018-12-19T16:53:08.574Z,12.33
2018-12-19T16:55:34.878Z,11.50
2018-12-19T16:58:01.185Z,10.03
2018-12-19T17:00:27.629Z,8.43
2018-12-19T17:02:53.996Z,7.37
2018-12-19T17:05:20.383Z,6.97
2018-12-19T17:07:46.740Z,6.33
2018-12-19T17:10:13.022Z,6.07
2018-12-19T17:12:39.329Z,8.60
2018-12-19T17:15:05.666Z,7.60
2018-12-19T17:17:32.014Z,6.90
2018-12-19T17:19:58.407Z,11.00
2018-12-19T17:22:24.720Z,12.50
2018-12-19T17:24:50.969Z,11.17
2018-12-19T17:27:17.460Z,10.20
2018-12-19T17:29:43.725Z,7.37
2018-12-19T17:32:10.134Z,7.50
2018-12-19T17:34:36.452Z,6.90
2018-12-19T17:37:02.750Z,6.17
2018-12-19T17:39:29.020Z,6.50
2018-12-19T17:41:55.318Z,6.60
2018-12-19T17:44:21.616Z,5.87
2018-12-19T17:46:48.023Z,5.77
2018-12-19T17:49:14.330Z,5.23
2018-12-19T17:51:40.556Z,4.90
2018-12-19T17:54:06.829Z,5.50
2018-12-19T17:56:33.137Z,6.07
2018-12-19T17:58:59.399Z,7.50
2018-12-19T18:01:25.822Z,6.60
2018-12-19T18:03:52.215Z,6.53
2018-12-19T18:06:18.476Z,6.53
2018-12-19T18:08:44.821Z,6.70
2018-12-19T18:11:11.113Z,8.97
2018-12-19T18:13:37.422Z,11.07
2018-12-19T18:16:03.764Z,10.03
2018-12-19T18:18:30.049Z,9.70
2018-12-19T18:20:56.363Z,18.60
2018-12-19T18:23:22.644Z,15.13
2018-12-19T18:25:48.901Z,15.17
2018-12-19T18:28:15.199Z,13.27
2018-12-19T18:30:41.464Z,15.10
2018-12-19T18:33:07.725Z,14.97
2018-12-19T18:35:34.089Z,14.47
2018-12-19T18:38:00.465Z,14.57
2018-12-19T18:40:26.750Z,15.23
2018-12-19T18:42:53.042Z,12.27
2018-12-19T18:45:19.314Z,11.67
2018-12-19T18:47:45.581Z,11.13
2018-12-19T18:50:11.860Z,12.43
2018-12-19T18:52:38.124Z,12.63
2018-12-19T18:55:05.976Z,12.20
2018-12-19T18:57:32.243Z,11.97
2018-12-19T18:59:59.208Z,11.87
2018-12-19T19:02:25.530Z,13.03
2018-12-19T19:04:51.832Z,11.40
2018-12-19T19:07:18.215Z,9.57
2018-12-19T19:09:44.554Z,9.23
2018-12-19T19:12:10.888Z,9.47
2018-12-19T19:14:37.190Z,10.13
2018-12-19T19:17:03.500Z,8.30
2018-12-19T19:19:29.904Z,8.67
2018-12-19T19:21:56.183Z,8.40
2018-12-19T19:24:22.472Z,7.23
2018-12-19T19:26:48.684Z,7.70
2018-12-19T19:29:14.960Z,10.27
2018-12-19T19:31:41.228Z,8.43
2018-12-19T19:34:07.517Z,7.90
2018-12-19T19:36:33.930Z,7.13
2018-12-19T19:39:00.187Z,6.60
2018-12-19T19:41:26.501Z,5.73
2018-12-19T19:43:52.765Z,5.80
2018-12-19T19:46:19.035Z,5.60
2018-12-19T19:48:45.291Z,5.60
2018-12-19T19:51:16.884Z,6.47
2018-12-19T19:53:39.954Z,6.77
2018-12-19T19:56:06.304Z,5.67
2018-12-19T19:58:32.584Z,5.83
2018-12-19T20:00:58.889Z,6.90
2018-12-19T20:03:25.218Z,6.67
2018-12-19T20:05:51.544Z,5.60
2018-12-19T20:08:17.833Z,5.50
2018-12-19T20:10:44.164Z,6.47
2018-12-19T20:13:10.406Z,6.13
2018-12-19T20:15:36.670Z,4.97
2018-12-19T20:18:03.084Z,5.87
2018-12-19T20:20:29.322Z,6.10
2018-12-19T20:22:55.591Z,5.33
2018-12-19T20:25:21.834Z,5.93
2018-12-19T20:27:48.125Z,4.93
2018-12-19T20:30:14.395Z,6.33
2018-12-19T20:32:40.728Z,5.83
2018-12-19T20:35:07.198Z,5.60
2018-12-19T20:37:33.413Z,5.50
2018-12-19T20:39:59.649Z,5.37
2018-12-19T20:42:25.924Z,5.50
2018-12-19T20:44:52.206Z,5.80
2018-12-19T20:47:18.552Z,4.70
2018-12-19T20:49:44.954Z,4.50
2018-12-19T20:52:11.259Z,5.50
2018-12-19T20:54:37.563Z,4.73
2018-12-19T20:57:03.842Z,4.70
2018-12-19T20:59:30.141Z,4.17
2018-12-19T21:01:56.504Z,3.97
2018-12-19T21:04:22.772Z,3.60
2018-12-19T21:06:49.099Z,4.40
2018-12-19T21:09:15.640Z,5.47
2018-12-19T21:11:42.050Z,4.63
2018-12-19T21:14:08.327Z,3.97
2018-12-19T21:16:40.691Z,4.17
2018-12-19T21:19:07.147Z,4.40
2018-12-19T21:21:33.431Z,4.47
2018-12-19T21:23:59.724Z,3.87
2018-12-19T21:26:26.012Z,3.77
2018-12-19T21:28:52.340Z,5.27
2018-12-19T21:31:18.630Z,4.13
2018-12-19T21:33:44.948Z,4.10
2018-12-19T21:36:11.273Z,3.50
2018-12-19T21:38:39.081Z,3.60
2018-12-19T21:41:07.661Z,2.97
2018-12-19T21:43:34.515Z,2.90
2018-12-19T21:46:01.276Z,2.73
2018-12-19T21:48:27.950Z,3.20
2018-12-19T21:50:54.275Z,2.93
2018-12-19T21:53:20.828Z,3.40
2018-12-19T21:55:47.561Z,2.70
2018-12-19T21:58:14.156Z,2.77
2018-12-19T22:00:40.656Z,2.87
2018-12-19T22:03:07.001Z,2.10
2018-12-19T22:05:34.024Z,2.13
2018-12-19T22:08:00.511Z,2.43
2018-12-19T22:10:26.960Z,2.60
2018-12-19T22:12:53.319Z,2.57
2018-12-19T22:15:19.601Z,2.37
2018-12-19T22:17:46.994Z,2.10
2018-12-19T22:20:13.460Z,2.47
2018-12-19T22:22:39.822Z,2.40
2018-12-19T22:25:06.139Z,2.83
2018-12-19T22:27:32.442Z,2.37
2018-12-19T22:29:58.803Z,2.27
2018-12-19T22:32:25.388Z,2.20
2018-12-19T22:34:51.678Z,1.93
2018-12-19T22:37:17.991Z,2.10
2018-12-19T22:39:44.290Z,2.20
2018-12-19T22:42:10.670Z,2.03
2018-12-19T22:44:37.129Z,2.50
2018-12-19T22:47:03.463Z,2.10
2018-12-19T22:49:29.753Z,2.33
2018-12-19T22:51:56.137Z,2.70
2018-12-19T22:54:22.376Z,2.50
2018-12-19T22:56:48.692Z,2.60
2018-12-19T22:59:15.049Z,3.50
2018-12-19T23:01:47.255Z,3.07
2018-12-19T23:04:13.681Z,3.00
2018-12-19T23:06:40.141Z,2.60
2018-12-19T23:09:06.590Z,2.50
2018-12-19T23:11:33.044Z,2.90
2018-12-19T23:13:59.426Z,2.43
2018-12-19T23:16:25.766Z,2.47
2018-12-19T23:18:52.297Z,2.77
2018-12-19T23:21:18.646Z,3.87
2018-12-19T23:23:45.127Z,3.90
2018-12-19T23:26:11.375Z,3.43
2018-12-19T23:28:38.007Z,4.03
2018-12-19T23:31:04.544Z,4.07
2018-12-19T23:33:30.936Z,4.20
2018-12-19T23:35:57.268Z,3.87
2018-12-19T23:38:23.628Z,3.53
2018-12-19T23:40:50.121Z,3.23
2018-12-19T23:43:16.365Z,3.20
2018-12-19T23:45:42.631Z,2.87
2018-12-19T23:48:08.951Z,2.80
2018-12-19T23:50:35.208Z,2.57
2018-12-19T23:53:01.518Z,2.33
2018-12-19T23:55:27.878Z,2.10
2018-12-19T23:57:54.318Z,3.37
